createdAt,value
2023-05-22T00:01:51.879Z,49613.38
2023-05-22T00:04:22.078Z,49635.31
2023-05-22T00:06:49.321Z,49625.34
2023-05-22T00:09:16.510Z,49599.41
2023-05-22T00:11:43.498Z,49633.31
2023-05-22T00:14:10.298Z,49663.22
2023-05-22T00:16:37.024Z,49669.19
2023-05-22T00:19:04.426Z,49647.25
2023-05-22T00:21:35.149Z,49653.25
2023-05-22T00:24:02.253Z,49675.19
2023-05-22T00:26:28.905Z,49635.31
2023-05-22T00:28:55.840Z,49667.19
2023-05-22T00:31:22.977Z,49627.31
2023-05-22T00:33:50.200Z,49635.31
2023-05-22T00:36:18.631Z,49639.28
2023-05-22T00:38:45.391Z,49659.22
2023-05-22T00:41:12.080Z,49647.25
2023-05-22T00:43:39.779Z,49649.25
2023-05-22T00:46:07.735Z,49663.22
2023-05-22T00:48:34.507Z,49641.28
2023-05-22T00:51:01.933Z,49635.31
2023-05-22T00:53:30.632Z,49673.19
2023-05-22T00:55:59.510Z,49637.28
2023-05-22T00:58:27.265Z,49661.22
2023-05-22T01:00:55.486Z,49627.31
2023-05-22T01:03:26.994Z,49599.41
2023-05-22T01:05:54.910Z,49677.16
2023-05-22T01:08:21.812Z,49655.25
2023-05-22T01:10:54.628Z,49647.25
2023-05-22T01:13:39.031Z,49667.19
2023-05-22T01:16:25.105Z,49667.19
2023-05-22T01:19:10.895Z,49659.22
2023-05-22T01:21:50.245Z,49645.28
2023-05-22T01:24:48.077Z,49661.22
2023-05-22T01:27:20.226Z,49659.22
2023-05-22T01:29:59.768Z,49681.16
2023-05-22T01:32:29.047Z,49657.22
2023-05-22T01:34:59.532Z,49651.25
2023-05-22T01:37:27.456Z,49657.22
2023-05-22T01:39:56.050Z,49661.22
2023-05-22T01:42:23.279Z,49647.25
2023-05-22T01:44:50.125Z,49669.19
2023-05-22T01:47:18.110Z,49675.19
2023-05-22T01:49:47.234Z,49681.16
2023-05-22T01:52:39.904Z,49641.28
2023-05-22T01:55:13.646Z,49679.16
2023-05-22T01:57:57.180Z,49663.22
2023-05-22T02:00:26.496Z,49675.19
2023-05-22T02:03:07.750Z,49631.31
2023-05-22T02:05:38.743Z,49663.22
2023-05-22T02:08:06.504Z,49673.19
2023-05-22T02:10:35.251Z,49641.28
2023-05-22T02:13:02.330Z,49671.19
2023-05-22T02:15:29.352Z,49683.16
2023-05-22T02:17:59.375Z,49643.28
2023-05-22T02:20:26.244Z,49687.13
2023-05-22T02:22:52.993Z,49689.13
2023-05-22T02:25:19.704Z,49675.19
2023-05-22T02:27:48.012Z,49675.19
2023-05-22T02:30:15.245Z,49705.06
2023-05-22T02:32:43.939Z,49659.22
2023-05-22T02:35:11.100Z,49633.31
2023-05-22T02:37:38.046Z,49653.25
2023-05-22T02:40:08.700Z,49709.06
2023-05-22T02:42:35.872Z,49661.22
2023-05-22T02:45:03.075Z,49669.19
2023-05-22T02:47:30.106Z,49663.22
2023-05-22T02:49:58.049Z,49689.13
2023-05-22T02:52:25.078Z,49691.13
2023-05-22T02:54:51.902Z,49681.16
2023-05-22T02:57:19.956Z,49675.19
2023-05-22T02:59:46.694Z,49699.09
2023-05-22T03:02:15.404Z,49693.13
2023-05-22T03:04:42.132Z,49697.09
2023-05-22T03:07:09.192Z,49711.06
2023-05-22T03:09:36.228Z,49623.34
2023-05-22T03:12:03.146Z,49701.09
2023-05-22T03:14:30.082Z,49677.16
2023-05-22T03:16:58.953Z,49647.25
2023-05-22T03:19:26.859Z,49673.19
2023-05-22T03:21:53.910Z,49679.16
2023-05-22T03:24:22.081Z,49669.19
2023-05-22T03:26:48.815Z,49683.16
2023-05-22T03:29:21.779Z,49655.25
2023-05-22T03:31:48.785Z,49711.06
2023-05-22T03:34:16.674Z,49683.16
2023-05-22T03:36:46.213Z,49681.16
2023-05-22T03:39:15.520Z,49691.13
2023-05-22T03:41:50.691Z,49635.31
2023-05-22T03:44:17.741Z,49675.19
2023-05-22T03:46:44.651Z,49703.09
2023-05-22T03:49:11.390Z,49673.19
2023-05-22T03:51:38.126Z,49675.19
2023-05-22T03:54:05.070Z,49665.22
2023-05-22T03:56:31.819Z,49705.06
2023-05-22T03:58:58.807Z,49689.13
2023-05-22T04:01:25.511Z,49689.13
2023-05-22T04:03:52.502Z,49667.19
2023-05-22T04:06:22.289Z,49693.13
2023-05-22T04:08:49.480Z,49667.19
2023-05-22T04:11:16.265Z,49703.09
2023-05-22T04:13:43.493Z,49709.06
2023-05-22T04:16:10.568Z,49653.25
2023-05-22T04:18:37.687Z,49721.03
2023-05-22T04:21:08.120Z,49705.06
2023-05-22T04:23:35.320Z,49727.00
2023-05-22T04:26:04.423Z,49691.13
2023-05-22T04:28:31.065Z,49677.16
2023-05-22T04:30:57.812Z,49740.97
2023-05-22T04:33:29.033Z,49683.16
2023-05-22T04:35:57.355Z,49707.06
2023-05-22T04:38:26.388Z,49669.19
2023-05-22T04:40:53.168Z,49687.13
2023-05-22T04:43:19.874Z,49675.19
2023-05-22T04:45:46.530Z,49711.06
2023-05-22T04:48:13.750Z,49683.16
2023-05-22T04:50:40.747Z,49683.16
2023-05-22T04:53:07.690Z,49709.06
2023-05-22T04:55:34.676Z,49683.16
2023-05-22T04:58:01.626Z,49703.09
2023-05-22T05:00:29.447Z,49711.06
2023-05-22T05:02:57.550Z,49675.19
2023-05-22T05:05:24.926Z,49723.03
2023-05-22T05:07:53.318Z,49691.13
2023-05-22T05:10:20.186Z,49691.13
2023-05-22T05:12:47.064Z,49691.13
2023-05-22T05:15:13.855Z,49655.25
2023-05-22T05:17:41.171Z,49697.09
2023-05-22T05:20:08.786Z,49681.16
2023-05-22T05:22:36.029Z,49697.09
2023-05-22T05:25:05.569Z,49685.13
2023-05-22T05:27:32.975Z,49693.13
2023-05-22T05:30:00.248Z,49703.09
2023-05-22T05:32:38.849Z,49705.06
2023-05-22T05:35:25.914Z,49695.09
2023-05-22T05:38:06.379Z,49679.16
2023-05-22T05:40:34.134Z,49711.06
2023-05-22T05:43:00.938Z,49677.16
2023-05-22T05:45:28.726Z,49653.25
2023-05-22T05:47:56.208Z,49679.16
2023-05-22T05:50:23.838Z,49679.16
2023-05-22T05:52:50.592Z,49687.13
2023-05-22T05:55:19.061Z,49693.13
2023-05-22T05:57:46.412Z,49693.13
2023-05-22T06:00:20.153Z,49699.09
2023-05-22T06:02:50.711Z,49711.06
2023-05-22T06:05:51.203Z,49705.06
2023-05-22T06:08:28.282Z,49675.19
2023-05-22T06:10:55.250Z,49679.16
2023-05-22T06:13:35.128Z,49715.03
2023-05-22T06:16:04.249Z,49697.09
2023-05-22T06:18:34.499Z,49665.22
2023-05-22T06:21:01.397Z,49701.09
2023-05-22T06:23:28.195Z,49707.06
2023-05-22T06:25:56.203Z,49665.22
2023-05-22T06:28:24.604Z,49736.97
2023-05-22T06:30:52.320Z,49687.13
2023-05-22T06:33:22.225Z,49687.13
2023-05-22T06:35:49.145Z,49715.03
2023-05-22T06:38:16.561Z,49687.13
2023-05-22T06:40:44.045Z,49681.16
2023-05-22T06:43:18.400Z,49675.19
2023-05-22T06:45:58.069Z,49719.03
2023-05-22T06:48:43.303Z,49673.19
2023-05-22T06:51:16.358Z,49711.06
2023-05-22T06:53:46.853Z,49715.03
2023-05-22T06:56:19.080Z,49691.13
2023-05-22T06:58:53.546Z,49665.22
2023-05-22T07:01:23.570Z,49691.13
2023-05-22T07:04:05.032Z,49683.16
2023-05-22T07:06:38.928Z,49675.19
2023-05-22T07:09:06.748Z,49681.16
2023-05-22T07:11:34.030Z,49707.06
2023-05-22T07:14:01.584Z,49671.19
2023-05-22T07:16:29.887Z,49679.16
2023-05-22T07:18:57.431Z,49655.25
2023-05-22T07:21:24.992Z,49681.16
2023-05-22T07:23:52.973Z,49685.13
2023-05-22T07:26:22.542Z,49687.13
2023-05-22T07:28:59.037Z,49687.13
2023-05-22T07:31:25.965Z,49667.19
2023-05-22T07:33:54.595Z,49673.19
2023-05-22T07:36:21.508Z,49687.13
2023-05-22T07:38:48.358Z,49671.19
2023-05-22T07:41:15.038Z,49707.06
2023-05-22T07:43:41.768Z,49683.16
2023-05-22T07:46:11.171Z,49695.09
2023-05-22T07:48:50.117Z,49705.06
2023-05-22T07:51:17.143Z,49687.13
2023-05-22T07:53:46.801Z,49681.16
2023-05-22T07:56:13.613Z,49689.13
2023-05-22T07:58:41.490Z,49679.16
2023-05-22T08:01:09.499Z,49679.16
2023-05-22T08:03:36.656Z,49661.22
2023-05-22T08:06:04.376Z,49677.16
2023-05-22T08:08:32.116Z,49697.09
2023-05-22T08:13:28.490Z,49687.13
2023-05-22T08:16:00.253Z,49675.19
2023-05-22T08:18:29.550Z,49671.19
2023-05-22T08:20:56.899Z,49679.16
2023-05-22T08:23:23.603Z,49655.25
2023-05-22T08:25:50.349Z,49701.09
2023-05-22T08:28:17.357Z,49679.16
2023-05-22T08:30:44.176Z,49705.06
2023-05-22T08:33:12.113Z,49675.19
2023-05-22T08:35:39.376Z,49681.16
2023-05-22T08:38:06.248Z,49738.97
2023-05-22T08:40:41.316Z,49683.16
2023-05-22T08:43:09.434Z,49655.25
2023-05-22T08:45:36.349Z,49707.06
2023-05-22T08:48:08.135Z,49711.06
2023-05-22T08:50:41.972Z,49707.06
2023-05-22T08:53:12.465Z,49663.22
2023-05-22T08:55:39.926Z,49685.13
2023-05-22T08:58:07.240Z,49683.16
2023-05-22T09:00:34.146Z,49669.19
2023-05-22T09:03:01.009Z,49677.16
2023-05-22T09:05:27.948Z,49691.13
2023-05-22T09:07:58.383Z,49685.13
2023-05-22T09:10:29.578Z,49707.06
2023-05-22T09:13:09.048Z,49705.06
2023-05-22T09:15:37.249Z,49671.19
2023-05-22T09:18:05.167Z,49669.19
2023-05-22T09:20:35.769Z,49675.19
2023-05-22T09:23:10.445Z,49669.19
2023-05-22T09:25:37.302Z,49679.16
2023-05-22T09:28:04.532Z,49661.22
2023-05-22T09:30:34.649Z,49691.13
2023-05-22T09:33:01.415Z,49617.38
2023-05-22T09:35:28.333Z,49669.19
2023-05-22T09:37:55.329Z,49627.31
2023-05-22T09:40:22.181Z,49671.19
2023-05-22T09:42:48.899Z,49649.25
2023-05-22T09:45:21.185Z,49663.22
2023-05-22T09:47:51.248Z,49655.25
2023-05-22T09:50:18.594Z,49641.28
2023-05-22T09:52:46.985Z,49635.31
2023-05-22T09:55:14.544Z,49655.25
2023-05-22T09:57:45.230Z,49631.31
2023-05-22T10:00:15.592Z,49643.28
2023-05-22T10:02:46.290Z,49603.41
2023-05-22T10:05:21.393Z,49635.31
2023-05-22T10:07:55.248Z,49627.31
2023-05-22T10:10:25.019Z,49665.22
2023-05-22T10:12:56.092Z,49643.28
2023-05-22T10:15:23.311Z,49637.28
2023-05-22T10:17:50.273Z,49651.25
2023-05-22T10:20:17.231Z,49651.25
2023-05-22T10:22:44.459Z,49629.31
2023-05-22T10:25:11.729Z,49615.38
2023-05-22T10:27:40.810Z,49639.28
2023-05-22T10:30:16.332Z,49631.31
2023-05-22T10:33:22.135Z,49599.41
2023-05-22T10:35:59.044Z,49621.34
2023-05-22T10:38:53.946Z,49653.25
2023-05-22T10:41:21.364Z,49585.47
2023-05-22T10:43:51.697Z,49595.44
2023-05-22T10:46:18.876Z,49627.31
2023-05-22T10:48:52.411Z,49637.28
2023-05-22T10:51:21.672Z,49631.31
2023-05-22T10:53:53.412Z,49615.38
2023-05-22T10:56:21.299Z,49611.38
2023-05-22T10:58:57.181Z,49591.44
2023-05-22T11:01:26.289Z,49611.38
2023-05-22T11:04:14.380Z,49615.38
2023-05-22T11:06:48.980Z,49587.47
2023-05-22T11:09:31.044Z,49607.41
2023-05-22T11:12:16.891Z,49601.41
2023-05-22T11:15:07.952Z,49583.47
2023-05-22T11:17:41.061Z,49615.38
2023-05-22T11:20:37.498Z,49621.34
2023-05-22T11:23:06.933Z,49635.31
2023-05-22T11:25:36.602Z,49603.41
2023-05-22T11:28:05.626Z,49599.41
2023-05-22T11:30:33.847Z,49597.44
2023-05-22T11:33:02.160Z,49587.47
2023-05-22T11:35:29.467Z,49583.47
2023-05-22T11:37:57.011Z,49609.38
2023-05-22T11:40:29.709Z,49609.38
2023-05-22T11:42:57.122Z,49595.44
2023-05-22T11:45:24.475Z,49599.41
2023-05-22T11:47:51.430Z,49583.47
2023-05-22T11:50:29.334Z,49583.47
2023-05-22T11:53:05.368Z,49595.44
2023-05-22T11:55:33.453Z,49569.50
2023-05-22T11:58:02.080Z,49597.44
2023-05-22T12:00:29.473Z,49597.44
2023-05-22T12:02:56.324Z,49583.47
2023-05-22T12:05:23.136Z,49599.41
2023-05-22T12:07:50.040Z,49647.25
2023-05-22T12:10:16.790Z,49581.47
2023-05-22T12:12:44.562Z,49605.41
2023-05-22T12:15:11.287Z,49567.53
2023-05-22T12:17:38.549Z,49591.44
2023-05-22T12:20:07.184Z,49551.56
2023-05-22T12:22:34.013Z,49581.47
2023-05-22T12:25:00.687Z,49591.44
2023-05-22T12:27:33.198Z,49587.47
2023-05-22T12:30:09.768Z,49599.41
2023-05-22T12:32:36.911Z,49551.56
2023-05-22T12:35:03.974Z,49539.63
2023-05-22T12:37:32.003Z,49583.47
2023-05-22T12:40:01.208Z,49549.59
2023-05-22T12:42:28.808Z,49555.56
2023-05-22T12:44:58.219Z,49591.44
2023-05-22T12:47:25.710Z,49543.59
2023-05-22T12:49:52.680Z,49591.44
2023-05-22T12:52:19.442Z,49543.59
2023-05-22T12:54:46.162Z,49583.47
2023-05-22T12:57:13.171Z,49543.59
2023-05-22T12:59:39.881Z,49559.56
2023-05-22T13:02:06.924Z,49539.63
2023-05-22T13:04:33.767Z,49547.59
2023-05-22T13:07:00.833Z,49555.56
2023-05-22T13:09:27.851Z,49539.63
2023-05-22T13:11:55.280Z,49503.72
2023-05-22T13:14:22.016Z,49529.66
2023-05-22T13:16:48.690Z,49597.44
2023-05-22T13:19:15.580Z,49559.56
2023-05-22T13:21:43.122Z,49555.56
2023-05-22T13:24:09.775Z,49543.59
2023-05-22T13:26:36.507Z,49551.56
2023-05-22T13:29:03.338Z,49571.50
2023-05-22T13:31:31.617Z,49521.69
2023-05-22T13:33:58.640Z,49565.53
2023-05-22T13:36:26.346Z,49523.66
2023-05-22T13:38:53.062Z,49551.56
2023-05-22T13:41:19.752Z,49515.69
2023-05-22T13:43:46.548Z,49505.72
2023-05-22T13:46:13.448Z,49525.66
2023-05-22T13:48:40.200Z,49515.69
2023-05-22T13:51:06.909Z,49543.59
2023-05-22T13:53:33.720Z,49511.72
2023-05-22T13:56:01.534Z,49541.59
2023-05-22T13:58:28.278Z,49551.56
2023-05-22T14:00:54.971Z,49505.72
2023-05-22T14:03:21.752Z,49583.47
2023-05-22T14:05:48.649Z,49525.66
2023-05-22T14:08:15.501Z,49575.50
2023-05-22T14:10:42.261Z,49565.53
2023-05-22T14:13:09.158Z,49541.59
2023-05-22T14:15:35.925Z,49523.66
2023-05-22T14:18:02.814Z,49491.78
2023-05-22T14:20:29.593Z,49513.69
2023-05-22T14:22:58.439Z,49507.72
2023-05-22T14:25:26.258Z,49547.59
2023-05-22T14:27:52.897Z,49503.72
2023-05-22T14:30:19.817Z,49509.72
2023-05-22T14:32:46.929Z,49555.56
2023-05-22T14:35:13.959Z,49555.56
2023-05-22T14:37:40.665Z,49535.63
2023-05-22T14:40:08.253Z,49531.63
2023-05-22T14:42:35.293Z,49519.69
2023-05-22T14:45:02.713Z,49537.63
2023-05-22T14:47:29.424Z,49553.56
2023-05-22T14:50:06.109Z,49457.88
2023-05-22T14:52:41.327Z,49511.72
2023-05-22T14:55:08.486Z,49491.78
2023-05-22T14:57:35.292Z,49483.81
2023-05-22T15:00:02.230Z,49481.81
2023-05-22T15:02:28.894Z,49489.78
2023-05-22T15:04:56.091Z,49535.63
2023-05-22T15:07:29.277Z,49563.53
2023-05-22T15:10:02.449Z,49525.66
2023-05-22T15:12:29.200Z,49523.66
2023-05-22T15:14:55.953Z,49509.72
2023-05-22T15:17:22.772Z,49519.69
2023-05-22T15:19:49.867Z,49493.75
2023-05-22T15:22:19.789Z,49527.66
2023-05-22T15:24:48.136Z,49541.59
2023-05-22T15:27:14.936Z,49495.75
2023-05-22T15:29:41.998Z,49483.81
2023-05-22T15:32:09.230Z,49525.66
2023-05-22T15:34:36.068Z,49525.66
2023-05-22T15:37:02.822Z,49527.66
2023-05-22T15:39:29.707Z,49519.69
2023-05-22T15:42:05.756Z,49531.63
2023-05-22T15:44:33.489Z,49507.72
2023-05-22T15:47:01.391Z,49503.72
2023-05-22T15:49:30.967Z,49495.75
2023-05-22T15:51:58.778Z,49539.63
2023-05-22T15:54:25.802Z,49519.69
2023-05-22T15:56:52.527Z,49559.56
2023-05-22T15:59:19.392Z,49567.53
2023-05-22T16:01:46.564Z,49519.69
2023-05-22T16:04:13.323Z,49475.81
2023-05-22T16:06:40.089Z,49495.75
2023-05-22T16:09:07.073Z,49513.69
2023-05-22T16:11:33.816Z,49507.72
2023-05-22T16:14:00.544Z,49507.72
2023-05-22T16:16:27.434Z,49487.78
2023-05-22T16:18:54.366Z,49479.81
2023-05-22T16:21:21.199Z,49503.72
2023-05-22T16:23:47.915Z,49511.72
2023-05-22T16:26:14.957Z,49515.69
2023-05-22T16:28:41.646Z,49475.81
2023-05-22T16:31:08.438Z,49463.88
2023-05-22T16:33:37.435Z,49485.78
2023-05-22T16:36:05.845Z,49485.78
2023-05-22T16:38:32.610Z,49531.63
2023-05-22T16:40:59.364Z,49507.72
2023-05-22T16:43:26.137Z,49523.66
2023-05-22T16:45:52.806Z,49531.63
2023-05-22T16:48:20.199Z,49505.72
2023-05-22T16:50:47.106Z,49511.72
2023-05-22T16:53:16.756Z,49547.59
2023-05-22T16:55:43.942Z,49527.66
2023-05-22T16:58:12.889Z,49519.69
2023-05-22T17:00:40.441Z,49511.72
2023-05-22T17:03:08.432Z,49555.56
2023-05-22T17:05:36.428Z,49513.69
2023-05-22T17:08:03.433Z,49471.84
2023-05-22T17:10:30.238Z,49527.66
2023-05-22T17:12:56.914Z,49539.63
2023-05-22T17:15:23.658Z,49531.63
2023-05-22T17:17:50.892Z,49531.63
2023-05-22T17:20:17.798Z,49515.69
2023-05-22T17:22:44.592Z,49503.72
2023-05-22T17:25:11.302Z,49507.72
2023-05-22T17:27:38.056Z,49509.72
2023-05-22T17:30:06.924Z,49495.75
2023-05-22T17:32:34.899Z,49507.72
2023-05-22T17:35:06.441Z,49535.63
2023-05-22T17:37:33.472Z,49533.63
2023-05-22T17:40:00.257Z,49571.50
2023-05-22T17:42:27.124Z,49565.53
2023-05-22T17:44:53.827Z,49575.50
2023-05-22T17:47:20.573Z,49577.50
2023-05-22T17:49:47.274Z,49563.53
2023-05-22T17:52:14.363Z,49591.44
2023-05-22T17:54:41.015Z,49583.47
2023-05-22T17:57:07.778Z,49583.47
2023-05-22T17:59:34.728Z,49543.59
2023-05-22T18:02:01.599Z,49575.50
2023-05-22T18:04:28.401Z,49567.53
2023-05-22T18:06:55.392Z,49549.59
2023-05-22T18:09:22.034Z,49527.66
2023-05-22T18:11:51.936Z,49509.72
2023-05-22T18:14:18.687Z,49539.63
2023-05-22T18:16:45.482Z,49551.56
2023-05-22T18:19:12.309Z,49487.78
2023-05-22T18:21:39.058Z,49579.47
2023-05-22T18:24:05.998Z,49521.69
2023-05-22T18:26:32.917Z,49543.59
2023-05-22T18:28:59.671Z,49523.66
2023-05-22T18:31:26.495Z,49537.63
2023-05-22T18:33:53.239Z,49513.69
2023-05-22T18:36:20.014Z,49499.75
2023-05-22T18:38:46.740Z,49539.63
2023-05-22T18:41:13.474Z,49591.44
2023-05-22T18:43:40.688Z,49581.47
2023-05-22T18:46:07.552Z,49589.44
2023-05-22T18:48:34.401Z,49615.38
2023-05-22T18:51:01.273Z,49559.56
2023-05-22T18:53:27.963Z,49605.41
2023-05-22T18:55:54.765Z,49591.44
2023-05-22T18:58:21.632Z,49587.47
2023-05-22T19:00:48.747Z,49563.53
2023-05-22T19:03:15.605Z,49591.44
2023-05-22T19:05:43.108Z,49575.50
2023-05-22T19:08:09.868Z,49585.47
2023-05-22T19:10:36.565Z,49609.38
2023-05-22T19:13:03.937Z,49567.53
2023-05-22T19:15:30.772Z,49583.47
2023-05-22T19:17:57.615Z,49593.44
2023-05-22T19:20:24.588Z,49607.41
2023-05-22T19:22:51.514Z,49587.47
2023-05-22T19:25:18.551Z,49555.56
2023-05-22T19:27:45.850Z,49567.53
2023-05-22T19:30:15.201Z,49623.34
2023-05-22T19:32:45.046Z,49611.38
2023-05-22T19:35:11.801Z,49603.41
2023-05-22T19:37:38.460Z,49601.41
2023-05-22T19:40:06.069Z,49609.38
2023-05-22T19:42:33.094Z,49625.34
2023-05-22T19:44:59.879Z,49519.69
2023-05-22T19:47:27.284Z,49607.41
2023-05-22T19:49:54.118Z,49631.31
2023-05-22T19:52:20.859Z,49607.41
2023-05-22T19:54:47.664Z,49607.41
2023-05-22T19:57:14.586Z,49585.47
2023-05-22T19:59:41.342Z,49613.38
2023-05-22T20:02:08.150Z,49553.56
2023-05-22T20:04:35.088Z,49613.38
2023-05-22T20:07:03.816Z,49599.41
2023-05-22T20:09:30.618Z,49627.31
2023-05-22T20:11:57.332Z,49587.47
2023-05-22T20:14:23.986Z,49629.31
2023-05-22T20:16:51.129Z,49559.56
2023-05-22T20:19:18.124Z,49619.34
2023-05-22T20:21:45.414Z,49639.28
2023-05-22T20:24:17.491Z,49623.34
2023-05-22T20:26:44.630Z,49617.38
2023-05-22T20:29:11.458Z,49597.44
2023-05-22T20:31:38.321Z,49607.41
2023-05-22T20:34:05.179Z,49639.28
2023-05-22T20:36:35.080Z,49607.41
2023-05-22T20:39:02.498Z,49605.41
2023-05-22T20:41:29.192Z,49605.41
2023-05-22T20:43:56.110Z,49601.41
2023-05-22T20:46:22.921Z,49633.31
2023-05-22T20:48:51.403Z,49611.38
2023-05-22T20:51:20.492Z,49663.22
2023-05-22T20:53:52.422Z,49645.28
2023-05-22T20:56:19.219Z,49653.25
2023-05-22T20:58:45.935Z,49631.31
2023-05-22T21:01:12.669Z,49631.31
2023-05-22T21:03:39.470Z,49651.25
2023-05-22T21:06:06.542Z,49627.31
2023-05-22T21:08:33.224Z,49643.28
2023-05-22T21:11:00.046Z,49635.31
2023-05-22T21:13:26.834Z,49649.25
2023-05-22T21:15:53.494Z,49635.31
2023-05-22T21:18:20.201Z,49643.28
2023-05-22T21:20:46.983Z,49641.28
2023-05-22T21:23:13.676Z,49649.25
2023-05-22T21:25:40.489Z,49663.22
2023-05-22T21:28:07.903Z,49585.47
2023-05-22T21:30:34.698Z,49617.38
2023-05-22T21:33:01.789Z,49651.25
2023-05-22T21:35:28.614Z,49683.16
2023-05-22T21:37:55.291Z,49639.28
2023-05-22T21:40:22.053Z,49615.38
2023-05-22T21:42:48.826Z,49661.22
2023-05-22T21:45:15.839Z,49659.22
2023-05-22T21:47:42.650Z,49667.19
2023-05-22T21:50:09.970Z,49635.31
2023-05-22T21:52:36.681Z,49645.28
2023-05-22T21:55:03.987Z,49631.31
2023-05-22T21:57:30.814Z,49623.34
2023-05-22T21:59:57.556Z,49633.31
2023-05-22T22:02:24.666Z,49667.19
2023-05-22T22:04:51.728Z,49673.19
2023-05-22T22:07:18.410Z,49641.28
2023-05-22T22:09:45.135Z,49685.13
2023-05-22T22:12:11.911Z,49643.28
2023-05-22T22:14:38.680Z,49679.16
2023-05-22T22:17:09.099Z,49661.22
2023-05-22T22:19:36.379Z,49623.34
2023-05-22T22:22:03.773Z,49645.28
2023-05-22T22:24:30.433Z,49655.25
2023-05-22T22:26:57.173Z,49667.19
2023-05-22T22:29:23.934Z,49641.28
2023-05-22T22:31:50.993Z,49677.16
2023-05-22T22:34:17.728Z,49671.19
2023-05-22T22:36:44.552Z,49671.19
2023-05-22T22:39:11.270Z,49635.31
2023-05-22T22:41:37.941Z,49633.31
2023-05-22T22:44:04.770Z,49675.19
2023-05-22T22:46:32.215Z,49655.25
2023-05-22T22:49:01.824Z,49677.16
2023-05-22T22:51:32.032Z,49671.19
2023-05-22T22:53:58.748Z,49689.13
2023-05-22T22:56:29.340Z,49613.38
2023-05-22T22:58:57.451Z,49675.19
2023-05-22T23:01:24.436Z,49653.25
2023-05-22T23:03:51.525Z,49671.19
2023-05-22T23:06:19.488Z,49643.28
2023-05-22T23:08:46.219Z,49667.19
2023-05-22T23:11:13.006Z,49631.31
2023-05-22T23:13:41.330Z,49671.19
2023-05-22T23:16:08.359Z,49657.22
2023-05-22T23:18:35.486Z,49647.25
2023-05-22T23:21:02.170Z,49671.19
2023-05-22T23:23:28.928Z,49675.19
2023-05-22T23:25:57.396Z,49653.25
2023-05-22T23:28:25.592Z,49663.22
2023-05-22T23:30:52.961Z,49647.25
2023-05-22T23:33:19.765Z,49701.09
2023-05-22T23:35:46.498Z,49679.16
2023-05-22T23:38:13.235Z,49673.19
2023-05-22T23:40:39.929Z,49679.16
2023-05-22T23:43:06.636Z,49679.16
2023-05-22T23:45:33.301Z,49657.22
2023-05-22T23:48:00.122Z,49667.19
2023-05-22T23:50:26.871Z,49689.13
2023-05-22T23:52:54.123Z,49685.13
2023-05-22T23:55:20.978Z,49627.31
2023-05-22T23:57:47.654Z,49633.31
